Captain IVan Vikulov — UGRZ — position and weather

sailwx.info

Track history (hours):
 
Tides and Currents Weather Stations Pressure Air Temp Water Temp Dewpoint Dewpoint Depression Visibility Wind Speed Wind Dir Waves Ship Positions

Captain IVan Vikulov

Last reported at 2018-Jan-27 12:52 UTC. Time now 2018-Apr-20 00:58 UTC.
Position N 45°29' E 036°44'.
Warning: this ship's position is months out of date.

Length 140 m; draft 2.9 m.

Type: Cargo ship. MMSI: 273457720.

Date/timePositionNaut miles runAvg speedWind from/ knotsBaromVisibWave heightAir tempDewpointWater temp
2018-Jan-27 12:52N 45°29' E 036°44'3 7.9
2018-Jan-27 12:29N 45°26' E 036°42'4 7.9
2018-Jan-27 11:59N 45°23' E 036°40'4 7.0
2018-Jan-27 11:29N 45°20' E 036°36'  
2018-Jan-23 12:36N 45°09' E 036°33'0 0.0
2018-Jan-23 12:27N 45°09' E 036°33'0 0.0
2018-Jan-23 12:00N 45°09' E 036°33'0 0.0
2018-Jan-23 11:15N 45°09' E 036°33'0 0.0
2018-Jan-23 10:45N 45°09' E 036°33'0 0.0
2018-Jan-23 10:27N 45°09' E 036°33'0 0.0
2018-Jan-23 01:00N 45°09' E 036°33'4 5.7
2018-Jan-23 00:23N 45°11' E 036°29'4 8.1
2018-Jan-22 23:52N 45°15' E 036°28'3 7.9
2018-Jan-22 23:27N 45°18' E 036°29'4 7.9
2018-Jan-22 23:01N 45°19' E 036°33'4 9.0
2018-Jan-22 22:31N 45°21' E 036°39'3 5.5
2018-Jan-22 22:00N 45°24' E 036°41'2 4.3
2018-Jan-22 21:31N 45°26' E 036°39'3 0.3
2018-Jan-22 11:27N 45°28' E 036°36'0 0.0
2018-Jan-22 10:57N 45°28' E 036°36'0 0.0
2018-Jan-22 10:21N 45°28' E 036°36'0 0.0
2018-Jan-22 08:18N 45°28' E 036°36'0 0.0
2018-Jan-22 07:54N 45°28' E 036°36'0 0.0
2018-Jan-22 07:27N 45°28' E 036°36'0 0.0
2018-Jan-22 07:00N 45°28' E 036°36'0 0.0
2018-Jan-21 23:51N 45°28' E 036°36'0 0.0
2018-Jan-21 23:30N 45°28' E 036°36'0 0.0
2018-Jan-21 23:00N 45°28' E 036°36'0 0.0
2018-Jan-21 18:24N 45°28' E 036°37'0 0.0
2018-Jan-21 17:54N 45°28' E 036°37'0 0.0
2018-Jan-21 17:24N 45°28' E 036°37'0 0.0
2018-Jan-21 12:27N 45°28' E 036°37'0 0.0
2018-Jan-21 11:48N 45°28' E 036°37'0 0.0
2018-Jan-21 11:27N 45°28' E 036°37'0 0.0
2018-Jan-21 11:00N 45°28' E 036°37'0 0.0
2018-Jan-21 10:21N 45°28' E 036°37'0 0.0
2018-Jan-21 10:00N 45°28' E 036°37'0 0.0
2018-Jan-21 09:27N 45°28' E 036°37'0 0.0
2018-Jan-21 08:18N 45°28' E 036°37'0 0.0
2018-Jan-21 07:57N 45°28' E 036°37'0 0.0
2018-Jan-21 03:47N 45°28' E 036°37'1 2.0
2018-Jan-21 03:30N 45°28' E 036°37'5 7.3
2018-Jan-21 02:52N 45°30' E 036°43'  
Track history (hours):
 
Tides and Currents Weather Stations Pressure Air Temp Water Temp Dewpoint Dewpoint Depression Visibility Wind Speed Wind Dir Waves Ship Positions

Captain IVan Vikulov

Last reported at 2018-Jan-27 12:52 UTC. Time now 2018-Apr-20 00:58 UTC.
Position N 45°29' E 036°44'.
Warning: this ship's position is months out of date.

Length 140 m; draft 2.9 m.

Type: Cargo ship. MMSI: 273457720.

Date/timePositionNaut miles runAvg speedWind from/ knotsBaromVisibWave heightAir tempDewpointWater temp
2018-Jan-27 12:52N 45°29' E 036°44'3 7.9
2018-Jan-27 12:29N 45°26' E 036°42'4 7.9
2018-Jan-27 11:59N 45°23' E 036°40'4 7.0
2018-Jan-27 11:29N 45°20' E 036°36'  
2018-Jan-23 12:36N 45°09' E 036°33'0 0.0
2018-Jan-23 12:27N 45°09' E 036°33'0 0.0
2018-Jan-23 12:00N 45°09' E 036°33'0 0.0
2018-Jan-23 11:15N 45°09' E 036°33'0 0.0
2018-Jan-23 10:45N 45°09' E 036°33'0 0.0
2018-Jan-23 10:27N 45°09' E 036°33'0 0.0
2018-Jan-23 01:00N 45°09' E 036°33'4 5.7
2018-Jan-23 00:23N 45°11' E 036°29'4 8.1
2018-Jan-22 23:52N 45°15' E 036°28'3 7.9
2018-Jan-22 23:27N 45°18' E 036°29'4 7.9
2018-Jan-22 23:01N 45°19' E 036°33'4 9.0
2018-Jan-22 22:31N 45°21' E 036°39'3 5.5
2018-Jan-22 22:00N 45°24' E 036°41'2 4.3
2018-Jan-22 21:31N 45°26' E 036°39'3 0.3
2018-Jan-22 11:27N 45°28' E 036°36'0 0.0
2018-Jan-22 10:57N 45°28' E 036°36'0 0.0
2018-Jan-22 10:21N 45°28' E 036°36'0 0.0
2018-Jan-22 08:18N 45°28' E 036°36'0 0.0
2018-Jan-22 07:54N 45°28' E 036°36'0 0.0
2018-Jan-22 07:27N 45°28' E 036°36'0 0.0
2018-Jan-22 07:00N 45°28' E 036°36'0 0.0
2018-Jan-21 23:51N 45°28' E 036°36'0 0.0
2018-Jan-21 23:30N 45°28' E 036°36'0 0.0
2018-Jan-21 23:00N 45°28' E 036°36'0 0.0
2018-Jan-21 18:24N 45°28' E 036°37'0 0.0
2018-Jan-21 17:54N 45°28' E 036°37'0 0.0
2018-Jan-21 17:24N 45°28' E 036°37'0 0.0
2018-Jan-21 12:27N 45°28' E 036°37'0 0.0
2018-Jan-21 11:48N 45°28' E 036°37'0 0.0
2018-Jan-21 11:27N 45°28' E 036°37'0 0.0
2018-Jan-21 11:00N 45°28' E 036°37'0 0.0
2018-Jan-21 10:21N 45°28' E 036°37'0 0.0
2018-Jan-21 10:00N 45°28' E 036°37'0 0.0
2018-Jan-21 09:27N 45°28' E 036°37'0 0.0
2018-Jan-21 08:18N 45°28' E 036°37'0 0.0
2018-Jan-21 07:57N 45°28' E 036°37'0 0.0
2018-Jan-21 03:47N 45°28' E 036°37'1 2.0
2018-Jan-21 03:30N 45°28' E 036°37'5 7.3
2018-Jan-21 02:52N 45°30' E 036°43'  

Dump ship's entire track history